WetterOnline ( http://www.wetteronline.de )

Wetter aktuell Erfurt

Aktuelles Wetter: Eisenach (312m)

6-stündlich | Neueste Meldungen
Ortszeit Temperatur Wetter
Do, 27.04. 8:00 2.4° C bedeckt
Do, 27.04. 2:00 4.0° C bedeckt
Mi, 26.04. 20:00 6.6° C bedeckt
Mi, 26.04. 14:00 8.1° C bedeckt
Ortszeit Temperatur Wetter
Do, 27.04. 9:00 4.2° C bewölkt
Do, 27.04. 8:30 2.8° C bewölkt
Do, 27.04. 8:00 2.4° C bedeckt
Do, 27.04. 7:30 1.0° C bedeckt
Do, 27.04. 7:00 1.1° C bewölkt
Do, 27.04. 6:30 1.6° C bedeckt
Ortszeit Relative Feuchte Sichtweite
Do, 27.04. 8:00 82% 20 km
Do, 27.04. 2:00 67% 35 km
Mi, 26.04. 20:00 59% 35 km
Mi, 26.04. 14:00 42% 40 km
Ortszeit Relative Feuchte Sichtweite
Do, 27.04. 9:00 71% 15 km
Do, 27.04. 8:30 77% 18 km
Do, 27.04. 8:00 82% 20 km
Do, 27.04. 7:30 88% 22 km
Do, 27.04. 7:00 88% 14 km
Do, 27.04. 6:30 80% 25 km
Ortszeit Niederschlagsmenge Niederschlagsart
Do, 27.04. 8:00 0,0 l/m2 in 12 Std. -
Do, 27.04. 2:00 0,0 l/m2 in 6 Std. -
Mi, 26.04. 20:00 0,0 l/m2 in 12 Std. -
Mi, 26.04. 14:00 0,0 l/m2 in 6 Std. -
Ortszeit Niederschlagsmenge Niederschlagsart
Do, 27.04. 9:00 0,0 l/m2 in 1 Std. -
Do, 27.04. 8:30 keine Meldung -
Do, 27.04. 8:00 0,0 l/m2 in 1 Std. -
Do, 27.04. 7:30 keine Meldung -
Do, 27.04. 7:00 0,0 l/m2 in 1 Std. -
Do, 27.04. 6:30 keine Meldung -
Ortszeit Stärke Spitze Richtung
km/h Bft. km/h Grad Sektor
Do, 27.04. 8:00 4 1 11 290° W
Do, 27.04. 2:00 4 1 14 350° N
Mi, 26.04. 20:00 7 2 18 120° SO
Mi, 26.04. 14:00 7 2 14 20° N
Ortszeit Stärke Spitze Richtung
km/h Bft. km/h Grad Sektor
Do, 27.04. 9:00 6 1 11 310° NW
Do, 27.04. 8:30 6 1 6 290° W
Do, 27.04. 8:00 4 1 7 290° W
Do, 27.04. 7:30 4 1 7 160° S
Do, 27.04. 7:00 4 1 7 260° W
Do, 27.04. 6:30 7 2 7 280° W
Ortszeit Untergrenze Bedeckung Gattung
total tief tief mittel hoch
Do, 27.04. 8:00 900 m 8/8 8/8 - - -
Do, 27.04. 2:00 1500 m 8/8 8/8 - - -
Mi, 26.04. 20:00 1470 m 8/8 8/8 - - -
Mi, 26.04. 14:00 1500 m 8/8 8/8 - - -
Ortszeit Bedeckungsgrad in Achtel und Wolkenuntergrenze
Do, 27.04. 9:00 4(870m) 7(1110m) 7(1500m)
Do, 27.04. 8:30 5(900m) 7(1080m)
Do, 27.04. 8:00 2(900m) 6(1500m) 8(2100m)
Do, 27.04. 7:30 1(1380m) 8(2400m)
Do, 27.04. 7:00 3(1470m) 6(1500m) 7(2700m)
Do, 27.04. 6:30 6(1800m) 8(2700m) 8(3900m)
Ortszeit Luftdruck NN (hPa) Tendenz (hPa in 3 Std.)
Do, 27.04. 8:00 1016 + 1,5
Do, 27.04. 2:00 1014 + 0,4
Mi, 26.04. 20:00 1012 + 0,5
Mi, 26.04. 14:00 1012 + 0,1
Ortszeit Luftdruck NN (hPa) Tendenz (hPa in 3 Std.)
Do, 27.04. 9:00 1016 + 1,2
Do, 27.04. 8:30 1016 + 1,3
Do, 27.04. 8:00 1016 + 1,5
Do, 27.04. 7:30 1015 + 1,1
Do, 27.04. 7:00 1015 + 1,1
Do, 27.04. 6:30 1015 + 0,8
Ortszeit Schneehöhe (cm)
Do, 27.04. 8:00 -
Do, 27.04. 2:00 -
Mi, 26.04. 20:00 -
Mi, 26.04. 14:00 -
Ortszeit Schneehöhe (cm)
Do, 27.04. 9:00 -
Do, 27.04. 8:30 -
Do, 27.04. 8:00 -
Do, 27.04. 7:30 -
Do, 27.04. 7:00 -
Do, 27.04. 6:30 -
Link zu dieser Seite / Seite empfehlen

Das Wetter in ...